sensor_id;sensor_type;location;lat;lon;timestamp;temperature;humidity
16136;DHT22;8173;48.354;9.248;2022-08-19T00:00:47;16.00;99.90
16136;DHT22;8173;48.354;9.248;2022-08-19T00:03:15;16.10;99.90
16136;DHT22;8173;48.354;9.248;2022-08-19T00:05:42;16.00;99.90
16136;DHT22;8173;48.354;9.248;2022-08-19T00:08:09;16.00;99.90
16136;DHT22;8173;48.354;9.248;2022-08-19T00:10:35;16.00;99.90
16136;DHT22;8173;48.354;9.248;2022-08-19T00:13:02;16.00;99.90
16136;DHT22;8173;48.354;9.248;2022-08-19T00:15:31;16.00;99.90
16136;DHT22;8173;48.354;9.248;2022-08-19T00:17:57;15.90;99.90
16136;DHT22;8173;48.354;9.248;2022-08-19T00:20:24;15.90;99.90
16136;DHT22;8173;48.354;9.248;2022-08-19T00:22:51;15.90;99.90
16136;DHT22;8173;48.354;9.248;2022-08-19T00:25:18;15.90;99.90
16136;DHT22;8173;48.354;9.248;2022-08-19T00:27:45;15.90;99.90
16136;DHT22;8173;48.354;9.248;2022-08-19T00:30:13;15.80;99.90
16136;DHT22;8173;48.354;9.248;2022-08-19T00:32:41;15.80;99.90
16136;DHT22;8173;48.354;9.248;2022-08-19T00:35:08;15.80;99.90
16136;DHT22;8173;48.354;9.248;2022-08-19T00:37:36;15.80;99.90
16136;DHT22;8173;48.354;9.248;2022-08-19T00:40:05;15.80;99.90
16136;DHT22;8173;48.354;9.248;2022-08-19T00:42:33;15.80;99.90
16136;DHT22;8173;48.354;9.248;2022-08-19T00:44:59;15.90;99.90
16136;DHT22;8173;48.354;9.248;2022-08-19T00:47:26;15.80;99.90
16136;DHT22;8173;48.354;9.248;2022-08-19T00:49:57;15.80;99.90
16136;DHT22;8173;48.354;9.248;2022-08-19T00:52:27;15.80;99.90
16136;DHT22;8173;48.354;9.248;2022-08-19T00:54:56;15.80;99.90
16136;DHT22;8173;48.354;9.248;2022-08-19T00:57:27;15.80;99.90
16136;DHT22;8173;48.354;9.248;2022-08-19T00:59:55;15.80;99.90
16136;DHT22;8173;48.354;9.248;2022-08-19T01:02:23;15.80;99.90
16136;DHT22;8173;48.354;9.248;2022-08-19T01:04:50;15.80;99.90
16136;DHT22;8173;48.354;9.248;2022-08-19T01:07:18;15.80;99.90
16136;DHT22;8173;48.354;9.248;2022-08-19T01:09:45;15.70;99.90
16136;DHT22;8173;48.354;9.248;2022-08-19T01:12:13;15.70;99.90
16136;DHT22;8173;48.354;9.248;2022-08-19T01:14:41;15.70;99.90
16136;DHT22;8173;48.354;9.248;2022-08-19T01:17:09;15.70;99.90
16136;DHT22;8173;48.354;9.248;2022-08-19T01:19:39;15.60;99.90
16136;DHT22;8173;48.354;9.248;2022-08-19T01:22:11;15.70;99.90
16136;DHT22;8173;48.354;9.248;2022-08-19T01:24:40;15.60;99.90
16136;DHT22;8173;48.354;9.248;2022-08-19T01:27:07;15.60;99.90
16136;DHT22;8173;48.354;9.248;2022-08-19T01:29:38;15.50;99.90
16136;DHT22;8173;48.354;9.248;2022-08-19T01:32:06;15.60;99.90
16136;DHT22;8173;48.354;9.248;2022-08-19T01:34:33;15.50;99.90
16136;DHT22;8173;48.354;9.248;2022-08-19T01:37:01;15.60;99.90
16136;DHT22;8173;48.354;9.248;2022-08-19T01:39:34;15.50;99.90
16136;DHT22;8173;48.354;9.248;2022-08-19T01:42:02;15.50;99.90
16136;DHT22;8173;48.354;9.248;2022-08-19T01:44:29;15.50;99.90
16136;DHT22;8173;48.354;9.248;2022-08-19T01:46:57;15.50;99.90
16136;DHT22;8173;48.354;9.248;2022-08-19T01:49:24;15.50;99.90
16136;DHT22;8173;48.354;9.248;2022-08-19T01:51:52;15.50;99.90
16136;DHT22;8173;48.354;9.248;2022-08-19T01:54:21;15.50;99.90
16136;DHT22;8173;48.354;9.248;2022-08-19T01:56:48;15.40;99.90
16136;DHT22;8173;48.354;9.248;2022-08-19T01:59:19;15.50;99.90
16136;DHT22;8173;48.354;9.248;2022-08-19T02:01:47;15.60;99.90
16136;DHT22;8173;48.354;9.248;2022-08-19T02:04:14;15.60;99.90
16136;DHT22;8173;48.354;9.248;2022-08-19T02:06:41;15.50;99.90
16136;DHT22;8173;48.354;9.248;2022-08-19T02:09:08;15.50;99.90
16136;DHT22;8173;48.354;9.248;2022-08-19T02:11:36;15.50;99.90
16136;DHT22;8173;48.354;9.248;2022-08-19T02:14:06;15.50;99.90
16136;DHT22;8173;48.354;9.248;2022-08-19T02:16:35;15.50;99.90
16136;DHT22;8173;48.354;9.248;2022-08-19T02:19:03;15.60;99.90
16136;DHT22;8173;48.354;9.248;2022-08-19T02:21:30;15.50;99.90
16136;DHT22;8173;48.354;9.248;2022-08-19T02:23:57;15.50;99.90
16136;DHT22;8173;48.354;9.248;2022-08-19T02:26:25;15.50;99.90
16136;DHT22;8173;48.354;9.248;2022-08-19T02:28:53;15.40;99.90
16136;DHT22;8173;48.354;9.248;2022-08-19T02:31:23;15.40;99.90
16136;DHT22;8173;48.354;9.248;2022-08-19T02:33:52;15.40;99.90
16136;DHT22;8173;48.354;9.248;2022-08-19T02:36:18;15.40;99.90
16136;DHT22;8173;48.354;9.248;2022-08-19T02:38:45;15.40;99.90
16136;DHT22;8173;48.354;9.248;2022-08-19T02:41:14;15.40;99.90
16136;DHT22;8173;48.354;9.248;2022-08-19T02:43:41;15.40;99.90
16136;DHT22;8173;48.354;9.248;2022-08-19T02:46:13;15.40;99.90
16136;DHT22;8173;48.354;9.248;2022-08-19T02:48:40;15.40;99.90
16136;DHT22;8173;48.354;9.248;2022-08-19T02:51:08;15.40;99.90
16136;DHT22;8173;48.354;9.248;2022-08-19T02:53:35;15.40;99.90
16136;DHT22;8173;48.354;9.248;2022-08-19T02:56:06;15.40;99.90
16136;DHT22;8173;48.354;9.248;2022-08-19T02:58:34;15.40;99.90
16136;DHT22;8173;48.354;9.248;2022-08-19T03:01:01;15.40;99.90
16136;DHT22;8173;48.354;9.248;2022-08-19T03:03:27;15.40;99.90
16136;DHT22;8173;48.354;9.248;2022-08-19T03:06:06;15.40;99.90
16136;DHT22;8173;48.354;9.248;2022-08-19T03:08:34;15.40;99.90
16136;DHT22;8173;48.354;9.248;2022-08-19T03:11:01;15.40;99.90
16136;DHT22;8173;48.354;9.248;2022-08-19T03:13:28;15.40;99.90
16136;DHT22;8173;48.354;9.248;2022-08-19T03:15:55;15.30;99.90
16136;DHT22;8173;48.354;9.248;2022-08-19T03:18:22;15.40;99.90
16136;DHT22;8173;48.354;9.248;2022-08-19T03:20:51;15.40;99.90
16136;DHT22;8173;48.354;9.248;2022-08-19T03:23:20;15.30;99.90
16136;DHT22;8173;48.354;9.248;2022-08-19T03:25:50;15.40;99.90
16136;DHT22;8173;48.354;9.248;2022-08-19T03:28:23;15.30;99.90
16136;DHT22;8173;48.354;9.248;2022-08-19T03:30:58;15.30;99.90
16136;DHT22;8173;48.354;9.248;2022-08-19T03:33:26;15.30;99.90
16136;DHT22;8173;48.354;9.248;2022-08-19T03:36:04;15.30;99.90
16136;DHT22;8173;48.354;9.248;2022-08-19T03:38:31;15.30;99.90
16136;DHT22;8173;48.354;9.248;2022-08-19T03:41:04;15.40;99.90
16136;DHT22;8173;48.354;9.248;2022-08-19T03:43:32;15.30;99.90
16136;DHT22;8173;48.354;9.248;2022-08-19T03:46:01;15.30;99.90
16136;DHT22;8173;48.354;9.248;2022-08-19T03:48:29;15.30;99.90
16136;DHT22;8173;48.354;9.248;2022-08-19T03:50:57;15.30;99.90
16136;DHT22;8173;48.354;9.248;2022-08-19T03:53:24;15.40;99.90
16136;DHT22;8173;48.354;9.248;2022-08-19T03:55:52;15.40;99.90
16136;DHT22;8173;48.354;9.248;2022-08-19T03:58:21;15.30;99.90
16136;DHT22;8173;48.354;9.248;2022-08-19T04:00:48;15.30;99.90
16136;DHT22;8173;48.354;9.248;2022-08-19T04:03:15;15.30;99.90
16136;DHT22;8173;48.354;9.248;2022-08-19T04:05:44;15.30;99.90
16136;DHT22;8173;48.354;9.248;2022-08-19T04:08:11;15.30;99.90
16136;DHT22;8173;48.354;9.248;2022-08-19T04:10:38;15.30;99.90
16136;DHT22;8173;48.354;9.248;2022-08-19T04:13:06;15.30;99.90
16136;DHT22;8173;48.354;9.248;2022-08-19T04:15:39;15.30;99.90
16136;DHT22;8173;48.354;9.248;2022-08-19T04:18:07;15.30;99.90
16136;DHT22;8173;48.354;9.248;2022-08-19T04:20:39;15.30;99.90
16136;DHT22;8173;48.354;9.248;2022-08-19T04:23:06;15.30;99.90
16136;DHT22;8173;48.354;9.248;2022-08-19T04:25:36;15.30;99.90
16136;DHT22;8173;48.354;9.248;2022-08-19T04:28:03;15.40;99.90
16136;DHT22;8173;48.354;9.248;2022-08-19T04:30:29;15.30;99.90
16136;DHT22;8173;48.354;9.248;2022-08-19T04:32:58;15.40;99.90
16136;DHT22;8173;48.354;9.248;2022-08-19T04:35:24;15.40;99.90
16136;DHT22;8173;48.354;9.248;2022-08-19T04:37:51;15.40;99.90
16136;DHT22;8173;48.354;9.248;2022-08-19T04:40:18;15.30;99.90
16136;DHT22;8173;48.354;9.248;2022-08-19T04:43:02;15.40;99.90
16136;DHT22;8173;48.354;9.248;2022-08-19T04:45:29;15.40;99.90
16136;DHT22;8173;48.354;9.248;2022-08-19T04:47:57;15.40;99.90
16136;DHT22;8173;48.354;9.248;2022-08-19T04:50:25;15.40;99.90
16136;DHT22;8173;48.354;9.248;2022-08-19T04:52:52;15.40;99.90
16136;DHT22;8173;48.354;9.248;2022-08-19T04:55:20;15.40;99.90
16136;DHT22;8173;48.354;9.248;2022-08-19T04:57:47;15.40;99.90
16136;DHT22;8173;48.354;9.248;2022-08-19T05:00:14;15.40;99.90
16136;DHT22;8173;48.354;9.248;2022-08-19T05:02:41;15.40;99.90
16136;DHT22;8173;48.354;9.248;2022-08-19T05:05:09;15.40;99.90
16136;DHT22;8173;48.354;9.248;2022-08-19T05:07:36;15.50;99.90
16136;DHT22;8173;48.354;9.248;2022-08-19T05:10:05;15.50;99.90
16136;DHT22;8173;48.354;9.248;2022-08-19T05:12:31;15.50;99.90
16136;DHT22;8173;48.354;9.248;2022-08-19T05:14:59;15.50;99.90
16136;DHT22;8173;48.354;9.248;2022-08-19T05:17:27;15.50;99.90
16136;DHT22;8173;48.354;9.248;2022-08-19T05:19:54;15.60;99.90
16136;DHT22;8173;48.354;9.248;2022-08-19T05:22:40;15.60;99.90
16136;DHT22;8173;48.354;9.248;2022-08-19T05:25:09;15.60;99.90
16136;DHT22;8173;48.354;9.248;2022-08-19T05:27:37;15.60;99.90
16136;DHT22;8173;48.354;9.248;2022-08-19T05:30:05;15.70;99.90
16136;DHT22;8173;48.354;9.248;2022-08-19T05:32:32;15.60;99.90
16136;DHT22;8173;48.354;9.248;2022-08-19T05:34:59;15.60;99.90
16136;DHT22;8173;48.354;9.248;2022-08-19T05:37:26;15.60;99.90
16136;DHT22;8173;48.354;9.248;2022-08-19T05:39:55;15.50;99.90
16136;DHT22;8173;48.354;9.248;2022-08-19T05:42:22;15.50;99.90
16136;DHT22;8173;48.354;9.248;2022-08-19T05:44:49;15.50;99.90
16136;DHT22;8173;48.354;9.248;2022-08-19T05:47:17;15.50;99.90
16136;DHT22;8173;48.354;9.248;2022-08-19T05:49:45;15.60;99.90
16136;DHT22;8173;48.354;9.248;2022-08-19T05:52:14;15.60;99.90
16136;DHT22;8173;48.354;9.248;2022-08-19T05:54:42;15.60;99.90
16136;DHT22;8173;48.354;9.248;2022-08-19T05:57:12;15.60;99.90
16136;DHT22;8173;48.354;9.248;2022-08-19T05:59:38;15.60;99.90
16136;DHT22;8173;48.354;9.248;2022-08-19T06:02:06;15.50;99.90
16136;DHT22;8173;48.354;9.248;2022-08-19T06:04:33;15.60;99.90
16136;DHT22;8173;48.354;9.248;2022-08-19T06:07:00;15.60;99.90
16136;DHT22;8173;48.354;9.248;2022-08-19T06:09:28;15.70;99.90
16136;DHT22;8173;48.354;9.248;2022-08-19T06:11:57;15.70;99.90
16136;DHT22;8173;48.354;9.248;2022-08-19T06:14:28;15.60;99.90
16136;DHT22;8173;48.354;9.248;2022-08-19T06:16:56;15.60;99.90
16136;DHT22;8173;48.354;9.248;2022-08-19T06:19:25;15.50;99.90
16136;DHT22;8173;48.354;9.248;2022-08-19T06:21:54;15.50;99.90
16136;DHT22;8173;48.354;9.248;2022-08-19T06:24:23;15.50;99.90
16136;DHT22;8173;48.354;9.248;2022-08-19T06:26:52;15.50;99.90
16136;DHT22;8173;48.354;9.248;2022-08-19T06:29:21;15.60;99.90
16136;DHT22;8173;48.354;9.248;2022-08-19T06:31:52;15.60;99.90
16136;DHT22;8173;48.354;9.248;2022-08-19T06:34:20;15.60;99.90
16136;DHT22;8173;48.354;9.248;2022-08-19T06:36:48;15.60;99.90
16136;DHT22;8173;48.354;9.248;2022-08-19T06:39:18;15.70;99.90
16136;DHT22;8173;48.354;9.248;2022-08-19T06:41:47;15.60;99.90
16136;DHT22;8173;48.354;9.248;2022-08-19T06:44:17;15.60;99.90
16136;DHT22;8173;48.354;9.248;2022-08-19T06:46:44;15.70;99.90
16136;DHT22;8173;48.354;9.248;2022-08-19T06:49:12;15.60;99.90
16136;DHT22;8173;48.354;9.248;2022-08-19T06:51:41;15.60;99.90
16136;DHT22;8173;48.354;9.248;2022-08-19T06:54:08;15.60;99.90
16136;DHT22;8173;48.354;9.248;2022-08-19T06:56:36;15.50;99.90
16136;DHT22;8173;48.354;9.248;2022-08-19T06:59:04;15.50;99.90
16136;DHT22;8173;48.354;9.248;2022-08-19T07:01:35;15.50;99.90
16136;DHT22;8173;48.354;9.248;2022-08-19T07:04:04;15.50;99.90
16136;DHT22;8173;48.354;9.248;2022-08-19T07:06:32;15.50;99.90
16136;DHT22;8173;48.354;9.248;2022-08-19T07:08:59;15.50;99.90
16136;DHT22;8173;48.354;9.248;2022-08-19T07:11:26;15.50;99.90
16136;DHT22;8173;48.354;9.248;2022-08-19T07:13:53;15.50;99.90
16136;DHT22;8173;48.354;9.248;2022-08-19T07:16:21;15.50;99.90
16136;DHT22;8173;48.354;9.248;2022-08-19T07:18:48;15.50;99.90
16136;DHT22;8173;48.354;9.248;2022-08-19T07:21:17;15.50;99.90
16136;DHT22;8173;48.354;9.248;2022-08-19T07:23:46;15.50;99.90
16136;DHT22;8173;48.354;9.248;2022-08-19T07:26:16;15.40;99.90
16136;DHT22;8173;48.354;9.248;2022-08-19T07:28:45;15.40;99.90
16136;DHT22;8173;48.354;9.248;2022-08-19T07:31:13;15.40;99.90
16136;DHT22;8173;48.354;9.248;2022-08-19T07:33:41;15.40;99.90
16136;DHT22;8173;48.354;9.248;2022-08-19T07:36:11;15.40;99.90
16136;DHT22;8173;48.354;9.248;2022-08-19T07:38:39;15.40;99.90
16136;DHT22;8173;48.354;9.248;2022-08-19T07:41:10;15.40;99.90
16136;DHT22;8173;48.354;9.248;2022-08-19T07:43:37;15.40;99.90
16136;DHT22;8173;48.354;9.248;2022-08-19T07:46:05;15.30;99.90
16136;DHT22;8173;48.354;9.248;2022-08-19T07:48:32;15.40;99.90
16136;DHT22;8173;48.354;9.248;2022-08-19T07:51:00;15.40;99.90
16136;DHT22;8173;48.354;9.248;2022-08-19T07:53:28;15.40;99.90
16136;DHT22;8173;48.354;9.248;2022-08-19T07:55:56;15.40;99.90
16136;DHT22;8173;48.354;9.248;2022-08-19T07:58:26;15.40;99.90
16136;DHT22;8173;48.354;9.248;2022-08-19T08:00:53;15.40;99.90
16136;DHT22;8173;48.354;9.248;2022-08-19T08:03:21;15.40;99.90
16136;DHT22;8173;48.354;9.248;2022-08-19T08:06:09;15.40;99.90
16136;DHT22;8173;48.354;9.248;2022-08-19T08:08:53;15.50;99.90
16136;DHT22;8173;48.354;9.248;2022-08-19T08:11:45;15.50;99.90
16136;DHT22;8173;48.354;9.248;2022-08-19T08:14:17;15.50;99.90
16136;DHT22;8173;48.354;9.248;2022-08-19T08:16:44;15.40;99.90
16136;DHT22;8173;48.354;9.248;2022-08-19T08:19:12;15.40;99.90
16136;DHT22;8173;48.354;9.248;2022-08-19T08:21:41;15.40;99.90
16136;DHT22;8173;48.354;9.248;2022-08-19T08:24:08;15.40;99.90
16136;DHT22;8173;48.354;9.248;2022-08-19T08:26:35;15.40;99.90
16136;DHT22;8173;48.354;9.248;2022-08-19T08:29:02;15.40;99.90
16136;DHT22;8173;48.354;9.248;2022-08-19T08:31:30;15.40;99.90
16136;DHT22;8173;48.354;9.248;2022-08-19T08:33:57;15.40;99.90
16136;DHT22;8173;48.354;9.248;2022-08-19T08:36:24;15.40;99.90
16136;DHT22;8173;48.354;9.248;2022-08-19T08:38:52;15.40;99.90
16136;DHT22;8173;48.354;9.248;2022-08-19T08:41:25;15.40;99.90
16136;DHT22;8173;48.354;9.248;2022-08-19T08:43:55;15.40;99.90
16136;DHT22;8173;48.354;9.248;2022-08-19T08:46:25;15.40;99.90
16136;DHT22;8173;48.354;9.248;2022-08-19T08:48:59;15.40;99.90
16136;DHT22;8173;48.354;9.248;2022-08-19T08:51:31;15.50;99.90
16136;DHT22;8173;48.354;9.248;2022-08-19T08:53:59;15.50;99.90
16136;DHT22;8173;48.354;9.248;2022-08-19T08:56:26;15.60;99.90
16136;DHT22;8173;48.354;9.248;2022-08-19T08:58:57;15.60;99.90
16136;DHT22;8173;48.354;9.248;2022-08-19T09:01:24;15.60;99.90
16136;DHT22;8173;48.354;9.248;2022-08-19T09:03:52;15.50;99.90
16136;DHT22;8173;48.354;9.248;2022-08-19T09:06:28;15.40;99.90
16136;DHT22;8173;48.354;9.248;2022-08-19T09:09:03;15.40;99.90
16136;DHT22;8173;48.354;9.248;2022-08-19T09:11:42;15.40;99.90
16136;DHT22;8173;48.354;9.248;2022-08-19T09:14:20;15.40;99.90
16136;DHT22;8173;48.354;9.248;2022-08-19T09:16:48;15.40;99.90
16136;DHT22;8173;48.354;9.248;2022-08-19T09:19:17;15.50;99.90
16136;DHT22;8173;48.354;9.248;2022-08-19T09:21:46;15.50;99.90
16136;DHT22;8173;48.354;9.248;2022-08-19T09:24:14;15.50;99.90
16136;DHT22;8173;48.354;9.248;2022-08-19T09:26:41;15.50;99.90
16136;DHT22;8173;48.354;9.248;2022-08-19T09:29:09;15.60;99.90
16136;DHT22;8173;48.354;9.248;2022-08-19T09:31:36;15.60;99.90
16136;DHT22;8173;48.354;9.248;2022-08-19T09:34:03;15.60;99.90
16136;DHT22;8173;48.354;9.248;2022-08-19T09:36:30;15.60;99.90
16136;DHT22;8173;48.354;9.248;2022-08-19T09:39:00;15.60;99.90
16136;DHT22;8173;48.354;9.248;2022-08-19T09:41:27;15.70;99.90
16136;DHT22;8173;48.354;9.248;2022-08-19T09:43:55;15.60;99.90
16136;DHT22;8173;48.354;9.248;2022-08-19T09:46:24;15.70;99.90
16136;DHT22;8173;48.354;9.248;2022-08-19T09:48:52;15.70;99.90
16136;DHT22;8173;48.354;9.248;2022-08-19T09:51:21;15.70;99.90
16136;DHT22;8173;48.354;9.248;2022-08-19T09:53:49;15.70;99.90
16136;DHT22;8173;48.354;9.248;2022-08-19T09:56:19;15.70;99.90
16136;DHT22;8173;48.354;9.248;2022-08-19T09:58:46;15.80;99.90
16136;DHT22;8173;48.354;9.248;2022-08-19T10:01:16;15.80;99.90
16136;DHT22;8173;48.354;9.248;2022-08-19T10:03:43;15.80;99.90
16136;DHT22;8173;48.354;9.248;2022-08-19T10:06:13;15.70;99.90
16136;DHT22;8173;48.354;9.248;2022-08-19T10:08:39;15.70;99.90
16136;DHT22;8173;48.354;9.248;2022-08-19T10:11:06;15.70;99.90
16136;DHT22;8173;48.354;9.248;2022-08-19T10:13:35;15.80;99.90
16136;DHT22;8173;48.354;9.248;2022-08-19T10:16:05;15.80;99.90
16136;DHT22;8173;48.354;9.248;2022-08-19T10:18:32;15.70;99.90
16136;DHT22;8173;48.354;9.248;2022-08-19T10:21:07;15.70;99.90
16136;DHT22;8173;48.354;9.248;2022-08-19T10:23:35;15.60;99.90
16136;DHT22;8173;48.354;9.248;2022-08-19T10:26:03;15.70;99.90
16136;DHT22;8173;48.354;9.248;2022-08-19T10:28:32;15.70;99.90
16136;DHT22;8173;48.354;9.248;2022-08-19T10:31:03;15.80;99.90
16136;DHT22;8173;48.354;9.248;2022-08-19T10:33:31;15.80;99.90
16136;DHT22;8173;48.354;9.248;2022-08-19T10:36:02;15.80;99.90
16136;DHT22;8173;48.354;9.248;2022-08-19T10:38:30;15.70;99.90
16136;DHT22;8173;48.354;9.248;2022-08-19T10:40:57;15.70;99.90
16136;DHT22;8173;48.354;9.248;2022-08-19T10:43:24;15.70;99.90
16136;DHT22;8173;48.354;9.248;2022-08-19T10:45:54;15.70;99.90
16136;DHT22;8173;48.354;9.248;2022-08-19T10:48:25;15.80;99.90
16136;DHT22;8173;48.354;9.248;2022-08-19T10:50:52;15.80;99.90
16136;DHT22;8173;48.354;9.248;2022-08-19T10:53:36;15.80;99.90
16136;DHT22;8173;48.354;9.248;2022-08-19T10:56:03;16.20;99.90
16136;DHT22;8173;48.354;9.248;2022-08-19T10:58:47;15.90;99.90
16136;DHT22;8173;48.354;9.248;2022-08-19T11:01:14;15.90;99.90
16136;DHT22;8173;48.354;9.248;2022-08-19T11:03:42;15.90;99.90
16136;DHT22;8173;48.354;9.248;2022-08-19T11:06:11;16.00;99.90
16136;DHT22;8173;48.354;9.248;2022-08-19T11:08:37;15.90;99.90
16136;DHT22;8173;48.354;9.248;2022-08-19T11:11:05;16.00;99.90
16136;DHT22;8173;48.354;9.248;2022-08-19T11:13:34;16.00;99.90
16136;DHT22;8173;48.354;9.248;2022-08-19T11:16:04;16.00;99.90
16136;DHT22;8173;48.354;9.248;2022-08-19T11:18:32;16.00;99.90
16136;DHT22;8173;48.354;9.248;2022-08-19T11:21:08;15.90;99.90
16136;DHT22;8173;48.354;9.248;2022-08-19T11:23:35;15.90;99.90
16136;DHT22;8173;48.354;9.248;2022-08-19T11:26:03;15.90;99.90
16136;DHT22;8173;48.354;9.248;2022-08-19T11:28:29;15.90;99.90
16136;DHT22;8173;48.354;9.248;2022-08-19T11:30:56;15.90;99.90
16136;DHT22;8173;48.354;9.248;2022-08-19T11:33:23;15.80;99.90
16136;DHT22;8173;48.354;9.248;2022-08-19T11:35:51;15.80;99.90
16136;DHT22;8173;48.354;9.248;2022-08-19T11:38:20;15.80;99.90
16136;DHT22;8173;48.354;9.248;2022-08-19T11:40:54;15.80;99.90
16136;DHT22;8173;48.354;9.248;2022-08-19T11:43:21;15.90;99.90
16136;DHT22;8173;48.354;9.248;2022-08-19T11:45:48;15.80;99.90
16136;DHT22;8173;48.354;9.248;2022-08-19T11:48:15;15.80;99.90
16136;DHT22;8173;48.354;9.248;2022-08-19T11:50:42;15.80;99.90
16136;DHT22;8173;48.354;9.248;2022-08-19T11:53:09;15.90;99.90
16136;DHT22;8173;48.354;9.248;2022-08-19T11:55:38;15.90;99.90
16136;DHT22;8173;48.354;9.248;2022-08-19T11:58:05;15.90;99.90
16136;DHT22;8173;48.354;9.248;2022-08-19T12:00:33;15.90;99.90
16136;DHT22;8173;48.354;9.248;2022-08-19T12:03:00;16.00;99.90
16136;DHT22;8173;48.354;9.248;2022-08-19T12:05:27;16.00;99.90
16136;DHT22;8173;48.354;9.248;2022-08-19T12:07:54;15.90;99.90
16136;DHT22;8173;48.354;9.248;2022-08-19T12:10:22;15.90;99.90
16136;DHT22;8173;48.354;9.248;2022-08-19T12:12:50;16.00;99.90
16136;DHT22;8173;48.354;9.248;2022-08-19T12:15:17;16.00;99.90
16136;DHT22;8173;48.354;9.248;2022-08-19T12:17:44;15.90;99.90
16136;DHT22;8173;48.354;9.248;2022-08-19T12:20:12;15.90;99.90
16136;DHT22;8173;48.354;9.248;2022-08-19T12:22:41;15.90;99.90
16136;DHT22;8173;48.354;9.248;2022-08-19T12:25:09;15.90;99.90
16136;DHT22;8173;48.354;9.248;2022-08-19T12:27:36;16.10;99.90
16136;DHT22;8173;48.354;9.248;2022-08-19T12:30:07;16.00;99.90
16136;DHT22;8173;48.354;9.248;2022-08-19T12:32:35;16.10;99.90
16136;DHT22;8173;48.354;9.248;2022-08-19T12:35:02;16.00;99.90
16136;DHT22;8173;48.354;9.248;2022-08-19T12:37:29;16.00;99.90
16136;DHT22;8173;48.354;9.248;2022-08-19T12:39:57;16.00;99.90
16136;DHT22;8173;48.354;9.248;2022-08-19T12:42:24;16.00;99.90
16136;DHT22;8173;48.354;9.248;2022-08-19T12:44:50;16.00;99.90
16136;DHT22;8173;48.354;9.248;2022-08-19T12:47:19;16.00;99.90
16136;DHT22;8173;48.354;9.248;2022-08-19T12:49:47;16.00;99.90
16136;DHT22;8173;48.354;9.248;2022-08-19T12:52:14;16.00;99.90
16136;DHT22;8173;48.354;9.248;2022-08-19T12:54:42;15.90;99.90
16136;DHT22;8173;48.354;9.248;2022-08-19T12:57:10;15.80;99.90
16136;DHT22;8173;48.354;9.248;2022-08-19T12:59:37;15.80;99.90
16136;DHT22;8173;48.354;9.248;2022-08-19T13:02:05;15.80;99.90
16136;DHT22;8173;48.354;9.248;2022-08-19T13:04:34;15.80;99.90
16136;DHT22;8173;48.354;9.248;2022-08-19T13:07:03;15.90;99.90
16136;DHT22;8173;48.354;9.248;2022-08-19T13:09:30;15.90;99.90
16136;DHT22;8173;48.354;9.248;2022-08-19T13:11:57;15.80;99.90
16136;DHT22;8173;48.354;9.248;2022-08-19T13:14:25;15.90;99.90
16136;DHT22;8173;48.354;9.248;2022-08-19T13:16:52;16.00;99.90
16136;DHT22;8173;48.354;9.248;2022-08-19T13:19:19;16.10;99.90
16136;DHT22;8173;48.354;9.248;2022-08-19T13:21:51;16.20;99.90
16136;DHT22;8173;48.354;9.248;2022-08-19T13:24:17;16.30;99.90
16136;DHT22;8173;48.354;9.248;2022-08-19T13:26:44;16.40;99.90
16136;DHT22;8173;48.354;9.248;2022-08-19T13:29:11;16.50;99.90
16136;DHT22;8173;48.354;9.248;2022-08-19T13:31:55;16.70;99.90
16136;DHT22;8173;48.354;9.248;2022-08-19T13:34:40;16.70;99.90
16136;DHT22;8173;48.354;9.248;2022-08-19T13:37:08;16.70;99.90
16136;DHT22;8173;48.354;9.248;2022-08-19T13:39:35;16.70;99.90
16136;DHT22;8173;48.354;9.248;2022-08-19T13:42:02;16.60;99.90
16136;DHT22;8173;48.354;9.248;2022-08-19T13:44:31;16.50;99.90
16136;DHT22;8173;48.354;9.248;2022-08-19T13:47:01;16.50;99.90
16136;DHT22;8173;48.354;9.248;2022-08-19T13:49:31;16.50;99.90
16136;DHT22;8173;48.354;9.248;2022-08-19T13:51:58;16.40;99.90
16136;DHT22;8173;48.354;9.248;2022-08-19T13:54:26;16.40;99.90
16136;DHT22;8173;48.354;9.248;2022-08-19T13:56:53;16.50;99.90
16136;DHT22;8173;48.354;9.248;2022-08-19T13:59:20;16.50;99.90
16136;DHT22;8173;48.354;9.248;2022-08-19T14:01:47;16.60;99.90
16136;DHT22;8173;48.354;9.248;2022-08-19T14:04:13;16.60;99.90
16136;DHT22;8173;48.354;9.248;2022-08-19T14:06:40;16.60;99.90
16136;DHT22;8173;48.354;9.248;2022-08-19T14:09:07;16.60;99.90
16136;DHT22;8173;48.354;9.248;2022-08-19T14:11:35;16.50;99.90
16136;DHT22;8173;48.354;9.248;2022-08-19T14:14:02;16.70;99.90
16136;DHT22;8173;48.354;9.248;2022-08-19T14:16:29;16.80;99.90
16136;DHT22;8173;48.354;9.248;2022-08-19T14:18:56;16.80;99.90
16136;DHT22;8173;48.354;9.248;2022-08-19T14:21:24;16.90;99.90
16136;DHT22;8173;48.354;9.248;2022-08-19T14:23:52;16.80;99.90
16136;DHT22;8173;48.354;9.248;2022-08-19T14:26:20;16.90;99.90
16136;DHT22;8173;48.354;9.248;2022-08-19T14:28:49;16.90;99.90
16136;DHT22;8173;48.354;9.248;2022-08-19T14:31:18;16.80;99.90
16136;DHT22;8173;48.354;9.248;2022-08-19T14:33:47;16.90;99.90
16136;DHT22;8173;48.354;9.248;2022-08-19T14:36:14;17.00;99.90
16136;DHT22;8173;48.354;9.248;2022-08-19T14:38:41;16.80;99.90
16136;DHT22;8173;48.354;9.248;2022-08-19T14:41:13;16.80;99.90
16136;DHT22;8173;48.354;9.248;2022-08-19T14:43:43;16.80;99.90
16136;DHT22;8173;48.354;9.248;2022-08-19T14:46:13;16.80;99.90
16136;DHT22;8173;48.354;9.248;2022-08-19T14:48:41;16.70;99.90
16136;DHT22;8173;48.354;9.248;2022-08-19T14:51:08;16.70;99.90
16136;DHT22;8173;48.354;9.248;2022-08-19T14:53:35;16.70;99.90
16136;DHT22;8173;48.354;9.248;2022-08-19T14:56:07;16.60;99.90
16136;DHT22;8173;48.354;9.248;2022-08-19T14:58:34;16.50;99.90
16136;DHT22;8173;48.354;9.248;2022-08-19T15:01:01;16.50;99.90
16136;DHT22;8173;48.354;9.248;2022-08-19T15:03:30;16.60;99.90
16136;DHT22;8173;48.354;9.248;2022-08-19T15:05:58;16.60;99.90
16136;DHT22;8173;48.354;9.248;2022-08-19T15:08:28;16.50;99.90
16136;DHT22;8173;48.354;9.248;2022-08-19T15:10:56;16.50;99.90
16136;DHT22;8173;48.354;9.248;2022-08-19T15:13:24;16.50;99.90
16136;DHT22;8173;48.354;9.248;2022-08-19T15:15:52;16.60;99.90
16136;DHT22;8173;48.354;9.248;2022-08-19T15:18:19;16.50;99.90
16136;DHT22;8173;48.354;9.248;2022-08-19T15:20:49;16.50;99.90
16136;DHT22;8173;48.354;9.248;2022-08-19T15:23:17;16.40;99.90
16136;DHT22;8173;48.354;9.248;2022-08-19T15:25:45;16.50;99.90
16136;DHT22;8173;48.354;9.248;2022-08-19T15:28:16;16.40;99.90
16136;DHT22;8173;48.354;9.248;2022-08-19T15:30:50;16.30;99.90
16136;DHT22;8173;48.354;9.248;2022-08-19T15:33:18;16.40;99.90
16136;DHT22;8173;48.354;9.248;2022-08-19T15:35:47;16.30;99.90
16136;DHT22;8173;48.354;9.248;2022-08-19T15:38:16;16.40;99.90
16136;DHT22;8173;48.354;9.248;2022-08-19T15:40:47;16.40;99.90
16136;DHT22;8173;48.354;9.248;2022-08-19T15:43:14;16.50;99.90
16136;DHT22;8173;48.354;9.248;2022-08-19T15:45:41;16.50;99.90
16136;DHT22;8173;48.354;9.248;2022-08-19T15:48:08;16.70;99.90
16136;DHT22;8173;48.354;9.248;2022-08-19T15:50:35;16.70;99.90
16136;DHT22;8173;48.354;9.248;2022-08-19T15:53:05;16.80;99.90